createdAt,value
2019-03-18T00:00:37.892Z,97506.52
2019-03-18T00:03:10.220Z,97502.19
2019-03-18T00:05:42.150Z,97525.47
2019-03-18T00:08:14.086Z,97525.45
2019-03-18T00:10:46.076Z,97523.56
2019-03-18T00:13:18.086Z,97515.39
2019-03-18T00:15:50.008Z,97529.39
2019-03-18T00:18:22.378Z,97517.78
2019-03-18T00:20:54.302Z,97521.22
2019-03-18T00:23:26.656Z,97517.94
2019-03-18T00:25:58.622Z,97512.65
2019-03-18T00:28:30.552Z,97506.83
2019-03-18T00:31:02.932Z,97519.94
2019-03-18T00:33:34.894Z,97526.77
2019-03-18T00:36:06.816Z,97530.29
2019-03-18T00:38:38.756Z,97523.27
2019-03-18T00:41:11.000Z,97525.50
2019-03-18T00:43:43.250Z,97523.42
2019-03-18T00:46:15.604Z,97532.05
2019-03-18T00:48:47.953Z,97550.86
2019-03-18T00:51:20.614Z,97553.36
2019-03-18T00:53:53.291Z,97539.01
2019-03-18T00:56:25.210Z,97528.39
2019-03-18T00:58:57.148Z,97535.02
2019-03-18T01:01:29.084Z,97539.50
2019-03-18T01:04:01.020Z,97549.97
2019-03-18T01:06:32.939Z,97543.00
2019-03-18T01:09:06.136Z,97542.40
2019-03-18T01:11:38.104Z,97526.31
2019-03-18T01:14:10.035Z,97533.59
2019-03-18T01:16:41.956Z,97534.09
2019-03-18T01:19:13.893Z,97537.61
2019-03-18T01:21:46.558Z,97537.84
2019-03-18T01:24:18.808Z,97538.60
2019-03-18T01:26:51.055Z,97534.79
2019-03-18T01:29:24.702Z,97526.48
2019-03-18T01:31:56.627Z,97534.34
2019-03-18T01:34:28.587Z,97543.22
2019-03-18T01:37:00.488Z,97536.68
2019-03-18T01:39:32.420Z,97541.23
2019-03-18T01:42:04.345Z,97554.23
2019-03-18T01:44:36.269Z,97558.22
2019-03-18T01:47:08.195Z,97557.94
2019-03-18T01:49:40.549Z,97564.66
2019-03-18T01:52:12.473Z,97560.89
2019-03-18T01:54:44.732Z,97566.17
2019-03-18T01:57:17.020Z,97562.19
2019-03-18T01:59:49.912Z,97566.19
2019-03-18T02:02:21.844Z,97569.98
2019-03-18T02:04:53.781Z,97558.75
2019-03-18T02:07:25.536Z,97552.96
2019-03-18T02:09:57.476Z,97563.15
2019-03-18T02:12:30.939Z,97576.28
2019-03-18T02:15:02.882Z,97579.94
2019-03-18T02:17:34.797Z,97591.97
2019-03-18T02:20:08.275Z,97594.84
2019-03-18T02:22:40.300Z,97601.98
2019-03-18T02:25:13.333Z,97607.85
2019-03-18T02:27:46.339Z,97620.70
2019-03-18T02:30:18.527Z,97618.36
2019-03-18T02:32:51.021Z,97619.84
2019-03-18T02:35:22.953Z,97626.17
2019-03-18T02:37:54.886Z,97619.02
2019-03-18T02:40:26.808Z,97613.59
2019-03-18T02:42:58.736Z,97626.38
2019-03-18T02:45:30.989Z,97629.34
2019-03-18T02:48:03.247Z,97625.31
2019-03-18T02:50:35.186Z,97622.86
2019-03-18T02:53:07.113Z,97627.04
2019-03-18T02:55:39.364Z,97628.49
2019-03-18T02:58:11.279Z,97627.10
2019-03-18T03:00:43.543Z,97621.04
2019-03-18T03:03:15.880Z,97613.63
2019-03-18T03:05:47.827Z,97614.76
2019-03-18T03:08:20.645Z,97615.77
2019-03-18T03:10:53.211Z,97625.13
2019-03-18T03:13:25.181Z,97638.17
2019-03-18T03:15:57.427Z,97648.27
2019-03-18T03:18:29.985Z,97637.67
2019-03-18T03:21:02.337Z,97639.55
2019-03-18T03:23:34.268Z,97640.63
2019-03-18T03:26:06.191Z,97642.75
2019-03-18T03:28:38.127Z,97643.50
2019-03-18T03:31:10.062Z,97641.58
2019-03-18T03:33:42.019Z,97648.72
2019-03-18T03:36:14.268Z,97650.19
2019-03-18T03:38:46.932Z,97652.03
2019-03-18T03:41:18.868Z,97640.70
2019-03-18T03:43:51.116Z,97644.64
2019-03-18T03:46:23.366Z,97644.34
2019-03-18T03:48:55.294Z,97643.16
2019-03-18T03:51:27.270Z,97643.14
2019-03-18T03:53:59.210Z,97654.23
2019-03-18T03:56:31.148Z,97660.31
2019-03-18T03:59:03.487Z,97663.25
2019-03-18T04:01:35.852Z,97671.05
2019-03-18T04:04:08.622Z,97668.04
2019-03-18T04:06:40.650Z,97671.00
2019-03-18T04:09:14.093Z,97672.11
2019-03-18T04:11:46.058Z,97672.68
2019-03-18T04:14:17.995Z,97668.95
2019-03-18T04:17:01.217Z,97674.23
2019-03-18T04:19:23.551Z,97676.29
2019-03-18T04:21:55.486Z,97676.02
2019-03-18T04:24:27.418Z,97678.34
2019-03-18T04:26:59.353Z,97683.98
2019-03-18T04:29:31.276Z,97682.17
2019-03-18T04:32:04.055Z,97681.73
2019-03-18T04:34:35.977Z,97676.64
2019-03-18T04:37:08.403Z,97676.11
2019-03-18T04:39:40.330Z,97676.97
2019-03-18T04:42:12.274Z,97674.53
2019-03-18T04:44:44.622Z,97676.91
2019-03-18T04:47:16.552Z,97676.36
2019-03-18T04:49:49.218Z,97674.70
2019-03-18T04:52:21.571Z,97681.80
2019-03-18T04:54:53.519Z,97672.44
2019-03-18T04:57:25.443Z,97675.19
2019-03-18T04:59:57.796Z,97678.52
2019-03-18T05:02:30.153Z,97681.97
2019-03-18T05:05:02.923Z,97686.96
2019-03-18T05:07:35.284Z,97691.14
2019-03-18T05:10:07.971Z,97698.70
2019-03-18T05:12:40.023Z,97696.45
2019-03-18T05:15:12.276Z,97696.14
2019-03-18T05:17:44.647Z,97706.37
2019-03-18T05:20:16.693Z,97714.01
2019-03-18T05:22:48.758Z,97717.98
2019-03-18T05:25:20.733Z,97709.87
2019-03-18T05:27:53.079Z,97715.47
2019-03-18T05:30:25.015Z,97723.19
2019-03-18T05:32:57.246Z,97725.00
2019-03-18T05:35:29.598Z,97730.93
2019-03-18T05:38:01.852Z,97734.34
2019-03-18T05:40:34.199Z,97731.14
2019-03-18T05:43:06.123Z,97732.27
2019-03-18T05:45:38.194Z,97730.23
2019-03-18T05:48:10.897Z,97732.16
2019-03-18T05:50:43.281Z,97734.55
2019-03-18T05:53:15.216Z,97738.94
2019-03-18T05:55:47.191Z,97737.22
2019-03-18T05:58:19.146Z,97741.66
2019-03-18T06:00:51.078Z,97742.20
2019-03-18T06:03:24.024Z,97739.34
2019-03-18T06:05:55.955Z,97740.78
2019-03-18T06:08:28.200Z,97739.28
2019-03-18T06:11:00.974Z,97741.52
2019-03-18T06:13:32.907Z,97742.14
2019-03-18T06:16:05.258Z,97743.93
2019-03-18T06:18:37.191Z,97745.78
2019-03-18T06:21:09.118Z,97746.17
2019-03-18T06:23:41.108Z,97748.31
2019-03-18T06:26:13.351Z,97752.20
2019-03-18T06:28:45.289Z,97755.94
2019-03-18T06:31:17.221Z,97748.56
2019-03-18T06:33:49.894Z,97755.63
2019-03-18T06:36:21.902Z,97759.05
2019-03-18T06:38:53.827Z,97763.41
2019-03-18T06:41:26.069Z,97774.20
2019-03-18T06:43:58.316Z,97766.24
2019-03-18T06:46:30.682Z,97772.28
2019-03-18T06:49:04.189Z,97774.22
2019-03-18T06:51:36.440Z,97779.78
2019-03-18T06:54:08.369Z,97778.83
2019-03-18T06:56:40.293Z,97781.36
2019-03-18T06:59:12.350Z,97778.35
2019-03-18T07:01:44.452Z,97777.68
2019-03-18T07:04:16.797Z,97776.86
2019-03-18T07:06:48.847Z,97783.48
2019-03-18T07:09:20.822Z,97791.66
2019-03-18T07:11:53.066Z,97792.83
2019-03-18T07:14:25.842Z,97794.56
2019-03-18T07:16:57.896Z,97795.44
2019-03-18T07:19:30.840Z,97801.33
2019-03-18T07:22:03.303Z,97808.13
2019-03-18T07:24:35.829Z,97817.11
2019-03-18T07:27:08.209Z,97818.31
2019-03-18T07:29:40.607Z,97823.56
2019-03-18T07:32:12.951Z,97818.48
2019-03-18T07:34:45.014Z,97821.18
2019-03-18T07:37:16.974Z,97824.44
2019-03-18T07:39:49.430Z,97826.68
2019-03-18T07:42:21.740Z,97830.80
2019-03-18T07:44:54.221Z,97834.27
2019-03-18T07:47:27.262Z,97840.58
2019-03-18T07:50:00.371Z,97848.56
2019-03-18T07:52:32.296Z,97846.67
2019-03-18T07:55:04.810Z,97845.86
2019-03-18T07:57:36.741Z,97846.46
2019-03-18T08:00:10.697Z,97847.61
2019-03-18T08:02:43.053Z,97846.91
2019-03-18T08:05:15.424Z,97845.85
2019-03-18T08:07:47.349Z,97851.81
2019-03-18T08:10:19.288Z,97855.02
2019-03-18T08:12:51.941Z,97865.70
2019-03-18T08:15:24.195Z,97870.72
2019-03-18T08:17:56.129Z,97882.20
2019-03-18T08:20:28.380Z,97875.58
2019-03-18T08:23:00.306Z,97889.77
2019-03-18T08:25:32.772Z,97884.16
2019-03-18T08:28:04.819Z,97885.62
2019-03-18T08:30:37.694Z,97889.60
2019-03-18T08:33:09.617Z,97884.11
2019-03-18T08:35:41.557Z,97881.64
2019-03-18T08:38:13.495Z,97882.45
2019-03-18T08:40:45.425Z,97878.86
2019-03-18T08:43:18.042Z,97871.91
2019-03-18T08:45:49.980Z,97866.81
2019-03-18T08:48:21.895Z,97866.77
2019-03-18T08:50:53.818Z,97869.19
2019-03-18T08:53:26.165Z,97867.55
2019-03-18T08:55:58.105Z,97875.16
2019-03-18T08:58:30.467Z,97873.89
2019-03-18T09:01:02.416Z,97874.50
2019-03-18T09:03:34.763Z,97883.23
2019-03-18T09:06:06.691Z,97885.47
2019-03-18T09:08:38.937Z,97879.96
2019-03-18T09:11:10.872Z,97875.51
2019-03-18T09:13:42.808Z,97887.17
2019-03-18T09:16:15.161Z,97890.29
2019-03-18T09:18:47.415Z,97890.43
2019-03-18T09:21:19.763Z,97884.77
2019-03-18T09:23:51.706Z,97889.36
2019-03-18T09:26:23.633Z,97902.05
2019-03-18T09:28:55.984Z,97881.00
2019-03-18T09:31:28.096Z,97887.67
2019-03-18T09:34:00.161Z,97892.81
2019-03-18T09:36:32.091Z,97895.94
2019-03-18T09:39:05.541Z,97907.81
2019-03-18T09:41:37.468Z,97897.78
2019-03-18T09:44:09.406Z,97902.30
2019-03-18T09:46:41.650Z,97904.94
2019-03-18T09:49:21.462Z,97898.89
2019-03-18T09:51:47.299Z,97895.09
2019-03-18T09:54:19.225Z,97892.88
2019-03-18T09:56:52.563Z,97887.02
2019-03-18T09:59:25.329Z,97885.35
2019-03-18T10:01:57.260Z,97880.83
2019-03-18T10:04:29.316Z,97883.36
2019-03-18T10:07:01.407Z,97879.88
2019-03-18T10:09:33.913Z,97873.15
2019-03-18T10:12:06.038Z,97881.46
2019-03-18T10:14:39.527Z,97875.70
2019-03-18T10:17:11.626Z,97881.23
2019-03-18T10:19:43.718Z,97877.96
2019-03-18T10:22:15.745Z,97884.78
2019-03-18T10:24:48.299Z,97890.26
2019-03-18T10:27:20.388Z,97889.00
2019-03-18T10:29:52.819Z,97890.48
2019-03-18T10:32:24.920Z,97896.80
2019-03-18T10:34:56.921Z,97892.28
2019-03-18T10:37:30.243Z,97890.69
2019-03-18T10:40:03.078Z,97900.27
2019-03-18T10:42:35.168Z,97901.75
2019-03-18T10:45:08.737Z,97911.45
2019-03-18T10:47:40.713Z,97906.91
2019-03-18T10:50:12.765Z,97912.49
2019-03-18T10:52:44.792Z,97917.75
2019-03-18T10:55:16.792Z,97932.23
2019-03-18T10:57:48.726Z,97930.38
2019-03-18T11:00:21.292Z,97929.66
2019-03-18T11:02:53.229Z,97931.08
2019-03-18T11:05:25.155Z,97936.22
2019-03-18T11:07:57.499Z,97944.84
2019-03-18T11:10:29.423Z,97939.09
2019-03-18T11:13:01.663Z,97941.91
2019-03-18T11:15:34.590Z,97944.78
2019-03-18T11:18:06.509Z,97951.31
2019-03-18T11:20:38.747Z,97949.64
2019-03-18T11:23:11.103Z,97947.80
2019-03-18T11:25:43.146Z,97948.42
2019-03-18T11:28:15.608Z,97951.83
2019-03-18T11:30:48.062Z,97954.23
2019-03-18T11:33:20.563Z,97950.21
2019-03-18T11:35:55.728Z,97946.44
2019-03-18T11:38:27.529Z,97946.34
2019-03-18T11:40:59.870Z,97944.17
2019-03-18T11:43:31.793Z,97937.22
2019-03-18T11:46:03.721Z,97944.75
2019-03-18T11:48:36.393Z,97947.86
2019-03-18T11:51:08.323Z,97950.27
2019-03-18T11:53:40.255Z,97947.72
2019-03-18T11:56:12.226Z,97948.75
2019-03-18T11:58:44.784Z,97952.31
2019-03-18T12:01:16.711Z,97950.94
2019-03-18T12:03:49.940Z,97944.14
2019-03-18T12:06:21.878Z,97958.27
2019-03-18T12:08:54.431Z,97954.89
2019-03-18T12:11:27.384Z,97954.75
2019-03-18T12:13:59.637Z,97958.55
2019-03-18T12:16:31.984Z,97958.53
2019-03-18T12:19:03.927Z,97965.72
2019-03-18T12:21:35.943Z,97961.23
2019-03-18T12:24:08.716Z,97968.48
2019-03-18T12:26:41.057Z,97963.11
2019-03-18T12:29:13.501Z,97959.02
2019-03-18T12:31:46.260Z,97966.03
2019-03-18T12:34:18.200Z,97962.89
2019-03-18T12:36:50.964Z,97952.11
2019-03-18T12:39:24.755Z,97961.50
2019-03-18T12:41:56.567Z,97945.94
2019-03-18T12:44:28.817Z,97953.27
2019-03-18T12:47:00.739Z,97954.64
2019-03-18T12:49:32.659Z,97952.31
2019-03-18T12:52:04.904Z,97953.60
2019-03-18T12:54:37.258Z,97957.05
2019-03-18T12:57:10.340Z,97948.44
2019-03-18T12:59:42.378Z,97949.38
2019-03-18T13:02:15.043Z,97942.81
2019-03-18T13:04:47.415Z,97940.77
2019-03-18T13:07:19.337Z,97933.85
2019-03-18T13:09:51.281Z,97933.11
2019-03-18T13:12:23.744Z,97931.03
2019-03-18T13:14:56.832Z,97928.64
2019-03-18T13:17:29.262Z,97934.73
2019-03-18T13:20:02.233Z,97931.48
2019-03-18T13:22:34.126Z,97933.66
2019-03-18T13:25:06.683Z,97934.02
2019-03-18T13:27:39.539Z,97935.70
2019-03-18T13:30:15.513Z,97931.83
2019-03-18T13:32:48.087Z,97937.10
2019-03-18T13:35:20.597Z,97941.25
2019-03-18T13:37:52.846Z,97954.03
2019-03-18T13:40:24.811Z,97954.98
2019-03-18T13:42:57.241Z,97950.84
2019-03-18T13:45:29.219Z,97953.16
2019-03-18T13:48:01.452Z,97958.40
2019-03-18T13:50:33.379Z,97961.76
2019-03-18T13:53:05.312Z,97965.02
2019-03-18T13:55:37.242Z,97970.88
2019-03-18T13:58:09.640Z,97971.58
2019-03-18T14:00:41.986Z,97974.84
2019-03-18T14:03:14.231Z,97976.07
2019-03-18T14:05:47.002Z,97974.02
2019-03-18T14:08:19.769Z,97957.58
2019-03-18T14:10:51.728Z,97958.47
2019-03-18T14:13:23.691Z,97964.61
2019-03-18T14:15:55.647Z,97956.23
2019-03-18T14:18:27.979Z,97959.58
2019-03-18T14:20:59.916Z,97964.08
2019-03-18T14:23:32.150Z,97965.08
2019-03-18T14:26:04.081Z,97968.64
2019-03-18T14:28:36.008Z,97970.06
2019-03-18T14:31:08.355Z,97968.92
2019-03-18T14:33:40.697Z,97963.98
2019-03-18T14:36:13.048Z,97963.61
2019-03-18T14:38:45.436Z,97976.75
2019-03-18T14:41:17.350Z,97980.33
2019-03-18T14:43:49.621Z,97991.56
2019-03-18T14:46:21.952Z,97997.52
2019-03-18T14:48:54.774Z,97987.45
2019-03-18T14:51:27.340Z,97992.05
2019-03-18T14:54:00.255Z,97986.22
2019-03-18T14:56:32.508Z,97985.91
2019-03-18T14:59:04.529Z,97987.44
2019-03-18T15:01:36.457Z,97982.27
2019-03-18T15:04:08.694Z,97978.36
2019-03-18T15:06:41.357Z,97986.84
2019-03-18T15:09:13.705Z,97987.37
2019-03-18T15:11:46.049Z,97988.61
2019-03-18T15:14:19.278Z,97998.98
2019-03-18T15:16:51.531Z,97998.02
2019-03-18T15:19:23.457Z,97993.48
2019-03-18T15:21:58.581Z,97986.71
2019-03-18T15:24:29.532Z,97987.38
2019-03-18T15:27:02.293Z,97986.24
2019-03-18T15:29:34.532Z,97985.78
2019-03-18T15:32:06.883Z,97981.83
2019-03-18T15:34:39.343Z,97984.12
2019-03-18T15:37:11.394Z,97978.02
2019-03-18T15:39:43.431Z,97981.02
2019-03-18T15:42:16.205Z,97982.48
2019-03-18T15:44:48.561Z,97981.39
2019-03-18T15:47:21.018Z,97988.66
2019-03-18T15:49:53.375Z,97986.91
2019-03-18T15:52:25.935Z,97989.34
2019-03-18T15:54:58.384Z,97992.19
2019-03-18T15:57:30.879Z,97986.03
2019-03-18T16:00:02.775Z,97983.77
2019-03-18T16:02:34.712Z,97995.48
2019-03-18T16:05:07.424Z,98019.89
2019-03-18T16:07:39.353Z,98024.06
2019-03-18T16:10:12.390Z,98026.89
2019-03-18T16:12:44.435Z,98029.35
2019-03-18T16:15:17.119Z,98031.84
2019-03-18T16:17:49.144Z,98033.22
2019-03-18T16:20:21.884Z,98033.92
2019-03-18T16:22:54.242Z,98029.52
2019-03-18T16:25:26.457Z,98038.68
2019-03-18T16:27:59.015Z,98046.07
2019-03-18T16:30:31.004Z,98057.78
2019-03-18T16:33:03.360Z,98062.42
2019-03-18T16:35:35.922Z,98070.53
2019-03-18T16:38:07.858Z,98078.58
2019-03-18T16:40:39.778Z,98083.03
2019-03-18T16:43:12.449Z,98096.89
2019-03-18T16:45:44.690Z,98099.20
2019-03-18T16:48:17.458Z,98100.25
2019-03-18T16:50:49.801Z,98107.29
2019-03-18T16:53:21.731Z,98109.45
2019-03-18T16:55:53.779Z,98115.89
2019-03-18T16:58:26.148Z,98118.56
2019-03-18T17:00:58.177Z,98124.03
2019-03-18T17:03:30.246Z,98127.59
2019-03-18T17:06:02.714Z,98138.74
2019-03-18T17:08:35.590Z,98137.38
2019-03-18T17:11:08.289Z,98147.84
2019-03-18T17:13:40.545Z,98153.23
2019-03-18T17:16:12.478Z,98164.48
2019-03-18T17:18:45.145Z,98169.98
2019-03-18T17:21:17.502Z,98171.56
2019-03-18T17:23:49.844Z,98171.98
2019-03-18T17:26:22.191Z,98165.79
2019-03-18T17:28:54.124Z,98168.09
2019-03-18T17:31:26.057Z,98167.58
2019-03-18T17:33:58.026Z,98172.01
2019-03-18T17:36:30.374Z,98174.67
2019-03-18T17:39:02.402Z,98183.52
2019-03-18T17:41:34.709Z,98191.16
2019-03-18T17:44:06.635Z,98200.79
2019-03-18T17:46:38.633Z,98199.03
2019-03-18T17:49:11.304Z,98203.76
2019-03-18T17:51:43.231Z,98206.47
2019-03-18T17:54:15.587Z,98216.36
2019-03-18T17:56:47.826Z,98224.41
2019-03-18T17:59:20.503Z,98228.36
2019-03-18T18:01:52.432Z,98227.18
2019-03-18T18:04:24.380Z,98222.25
2019-03-18T18:06:56.936Z,98228.70
2019-03-18T18:09:30.122Z,98228.12
2019-03-18T18:12:02.216Z,98220.95
2019-03-18T18:14:36.719Z,98221.97
2019-03-18T18:17:08.648Z,98221.02
2019-03-18T18:19:41.721Z,98223.87
2019-03-18T18:22:13.647Z,98231.86
2019-03-18T18:24:45.580Z,98233.66
2019-03-18T18:27:19.100Z,98229.41
2019-03-18T18:29:51.524Z,98230.47
2019-03-18T18:32:25.140Z,98243.96
2019-03-18T18:34:57.079Z,98246.98
2019-03-18T18:37:29.328Z,98247.87
2019-03-18T18:40:04.759Z,98251.21
2019-03-18T18:42:36.067Z,98253.98
2019-03-18T18:45:10.531Z,98253.84
2019-03-18T18:47:42.778Z,98259.64
2019-03-18T18:50:15.636Z,98262.95
2019-03-18T18:52:48.922Z,98263.91
2019-03-18T18:55:21.479Z,98269.16
2019-03-18T18:57:53.830Z,98267.30
2019-03-18T19:00:25.876Z,98265.97
2019-03-18T19:02:58.653Z,98274.52
2019-03-18T19:05:30.902Z,98270.14
2019-03-18T19:08:03.290Z,98271.97
2019-03-18T19:10:36.112Z,98267.34
2019-03-18T19:13:08.793Z,98270.05
2019-03-18T19:15:43.987Z,98277.10
2019-03-18T19:18:15.929Z,98289.41
2019-03-18T19:20:48.604Z,98296.02
2019-03-18T19:23:20.852Z,98297.73
2019-03-18T19:25:53.210Z,98303.16
2019-03-18T19:28:26.184Z,98308.84
2019-03-18T19:30:58.125Z,98310.97
2019-03-18T19:33:30.476Z,98313.50
2019-03-18T19:36:02.519Z,98317.28
2019-03-18T19:38:34.848Z,98316.64
2019-03-18T19:41:07.214Z,98320.80
2019-03-18T19:43:39.558Z,98321.09
2019-03-18T19:46:12.220Z,98327.65
2019-03-18T19:48:44.571Z,98324.22
2019-03-18T19:51:16.509Z,98329.41
2019-03-18T19:53:49.632Z,98330.98
2019-03-18T19:56:21.673Z,98331.63
2019-03-18T19:58:53.614Z,98332.82
2019-03-18T20:01:26.190Z,98331.92
2019-03-18T20:03:58.539Z,98333.53
2019-03-18T20:06:30.699Z,98333.91
2019-03-18T20:09:04.153Z,98326.40
2019-03-18T20:11:36.499Z,98333.52
2019-03-18T20:14:09.161Z,98335.21
2019-03-18T20:16:41.837Z,98345.06
2019-03-18T20:19:14.496Z,98350.94
2019-03-18T20:21:46.847Z,98352.73
2019-03-18T20:24:19.144Z,98364.67
2019-03-18T20:26:51.073Z,98370.61
2019-03-18T20:29:23.002Z,98368.16
2019-03-18T20:31:55.352Z,98363.50
2019-03-18T20:34:28.679Z,98363.78
2019-03-18T20:37:00.616Z,98360.69
2019-03-18T20:39:32.544Z,98368.67
2019-03-18T20:42:05.665Z,98374.58
2019-03-18T20:44:38.443Z,98374.02
2019-03-18T20:47:10.802Z,98373.44
2019-03-18T20:49:42.727Z,98373.13
2019-03-18T20:52:17.068Z,98369.36
2019-03-18T20:54:50.033Z,98368.70
2019-03-18T20:57:21.960Z,98363.16
2019-03-18T20:59:54.216Z,98366.50
2019-03-18T21:02:26.779Z,98370.16
2019-03-18T21:04:59.541Z,98382.83
2019-03-18T21:07:31.505Z,98381.34
2019-03-18T21:10:05.255Z,98384.46
2019-03-18T21:12:37.234Z,98387.55
2019-03-18T21:15:10.035Z,98399.83
2019-03-18T21:17:42.703Z,98406.06
2019-03-18T21:20:16.645Z,98411.61
2019-03-18T21:22:50.478Z,98416.27
2019-03-18T21:25:22.416Z,98412.45
2019-03-18T21:27:54.448Z,98417.20
2019-03-18T21:30:26.633Z,98413.42
2019-03-18T21:32:58.682Z,98416.83
2019-03-18T21:35:32.095Z,98414.75
2019-03-18T21:38:04.127Z,98417.15
2019-03-18T21:40:36.491Z,98416.83
2019-03-18T21:43:08.845Z,98416.77
2019-03-18T21:45:41.089Z,98413.83
2019-03-18T21:48:13.024Z,98414.76
2019-03-18T21:50:45.288Z,98410.62
2019-03-18T21:53:17.229Z,98409.19
2019-03-18T21:55:50.569Z,98415.30
2019-03-18T21:58:22.500Z,98417.03
2019-03-18T22:00:55.268Z,98419.41
2019-03-18T22:03:28.467Z,98413.52
2019-03-18T22:06:01.357Z,98424.53
2019-03-18T22:08:34.031Z,98420.11
2019-03-18T22:11:05.995Z,98417.09
2019-03-18T22:13:37.933Z,98424.91
2019-03-18T22:16:09.859Z,98425.63
2019-03-18T22:18:42.211Z,98422.20
2019-03-18T22:21:14.128Z,98426.73
2019-03-18T22:23:46.061Z,98436.25
2019-03-18T22:26:18.295Z,98428.86
2019-03-18T22:28:50.648Z,98437.27
2019-03-18T22:31:23.407Z,98441.52
2019-03-18T22:33:55.331Z,98453.06
2019-03-18T22:36:27.253Z,98457.05
2019-03-18T22:38:59.608Z,98455.76
2019-03-18T22:41:32.940Z,98460.27
2019-03-18T22:44:05.201Z,98453.92
2019-03-18T22:46:37.237Z,98461.68
2019-03-18T22:49:09.161Z,98456.67
2019-03-18T22:51:41.618Z,98453.56
2019-03-18T22:54:13.541Z,98454.19
2019-03-18T22:56:45.777Z,98458.85
2019-03-18T22:59:18.122Z,98463.91
2019-03-18T23:01:51.470Z,98464.17
2019-03-18T23:04:24.387Z,98465.03
2019-03-18T23:06:56.573Z,98470.64
2019-03-18T23:09:28.825Z,98469.98
2019-03-18T23:12:01.207Z,98470.83
2019-03-18T23:14:33.195Z,98476.56
2019-03-18T23:17:05.568Z,98469.84
2019-03-18T23:19:37.912Z,98478.05
2019-03-18T23:22:10.572Z,98483.45
2019-03-18T23:24:43.498Z,98491.72
2019-03-18T23:27:15.952Z,98489.59
2019-03-18T23:29:48.183Z,98490.08
2019-03-18T23:32:20.838Z,98492.67
2019-03-18T23:34:54.145Z,98490.28
2019-03-18T23:37:26.069Z,98485.30
2019-03-18T23:39:58.985Z,98486.85
2019-03-18T23:42:30.916Z,98481.39
2019-03-18T23:45:03.485Z,98482.39
2019-03-18T23:47:35.398Z,98486.22
2019-03-18T23:50:07.729Z,98485.63
2019-03-18T23:52:39.982Z,98482.75
2019-03-18T23:55:19.498Z,98493.78
2019-03-18T23:57:46.461Z,98486.16
